Time;durP1;ratioP1;P1;durP2;ratioP2;P2;SDS_P1;SDS_P2;PMS_P1;PMS_P2;Temp;Humidity;BMP_temperature;BMP_pressure;BME280_temperature;BME280_humidity;BME280_pressure;Samples;Min_cycle;Max_cycle;Signal;HPM_P1;HPM_P2
2021/09/05 00:01:27;;;;;;;1.30;1.20;;;13.40;94.30;;;;;;5069272;28;20189;-74
2021/09/05 00:04:00;;;;;;;3.27;1.40;;;12.90;94.20;;;;;;5071104;28;20200;-73
2021/09/05 00:06:29;;;;;;;1.53;1.30;;;12.90;94.20;;;;;;5061615;28;20201;-73
2021/09/05 00:08:56;;;;;;;1.27;1.13;;;12.80;94.30;;;;;;5053765;28;20710;-73
2021/09/05 00:11:23;;;;;;;1.93;1.43;;;12.80;94.30;;;;;;5064904;28;20215;-73
2021/09/05 00:13:51;;;;;;;2.30;1.57;;;12.80;94.40;;;;;;5064570;28;20589;-73
2021/09/05 00:16:18;;;;;;;1.43;1.33;;;12.80;94.50;;;;;;5065637;28;20213;-75
2021/09/05 00:18:45;;;;;;;1.50;1.40;;;12.50;94.40;;;;;;5068977;28;20200;-74
2021/09/05 00:21:12;;;;;;;1.67;1.43;;;12.50;94.50;;;;;;5070004;28;20216;-74
2021/09/05 00:23:40;;;;;;;1.57;1.47;;;12.60;94.60;;;;;;5060020;28;20506;-74
2021/09/05 00:26:08;;;;;;;2.33;1.40;;;12.70;94.80;;;;;;5068068;28;20196;-74
2021/09/05 00:28:35;;;;;;;2.00;1.40;;;12.60;94.70;;;;;;5068838;28;20708;-74
2021/09/05 00:31:02;;;;;;;1.30;1.20;;;12.60;94.80;;;;;;5069138;28;20228;-74
2021/09/05 00:33:29;;;;;;;1.40;1.30;;;12.60;94.80;;;;;;5055516;28;20202;-74
2021/09/05 00:35:56;;;;;;;1.40;1.30;;;12.60;94.90;;;;;;5070607;28;20220;-73
2021/09/05 00:38:24;;;;;;;1.90;1.50;;;12.60;95.00;;;;;;5069495;28;20358;-73
2021/09/05 00:40:54;;;;;;;1.50;1.40;;;12.60;95.00;;;;;;5063914;28;20695;-73
2021/09/05 00:43:21;;;;;;;1.30;1.20;;;12.50;95.10;;;;;;5065697;28;20559;-73
2021/09/05 00:45:48;;;;;;;1.47;1.37;;;12.50;95.10;;;;;;5068667;28;20749;-73
2021/09/05 00:48:15;;;;;;;1.77;1.67;;;12.40;95.20;;;;;;5063761;28;20197;-73
2021/09/05 00:50:44;;;;;;;1.63;1.53;;;12.50;95.30;;;;;;5066999;28;20568;-73
2021/09/05 00:53:13;;;;;;;1.87;1.50;;;12.50;95.40;;;;;;5067186;28;20294;-73
2021/09/05 00:55:40;;;;;;;1.57;1.30;;;12.40;95.40;;;;;;5067585;28;20225;-73
2021/09/05 00:58:09;;;;;;;1.30;1.20;;;12.40;95.50;;;;;;5067683;28;20239;-74
2021/09/05 01:00:37;;;;;;;1.43;1.33;;;12.40;95.50;;;;;;5067265;28;20195;-74
2021/09/05 01:03:05;;;;;;;1.30;1.20;;;12.30;95.60;;;;;;5073832;28;20561;-74
2021/09/05 01:05:35;;;;;;;1.30;1.20;;;12.40;95.70;;;;;;5062776;28;20208;-74
2021/09/05 01:08:02;;;;;;;1.60;1.50;;;12.40;95.70;;;;;;5067133;28;20201;-74
2021/09/05 01:10:30;;;;;;;1.77;1.40;;;12.40;95.80;;;;;;5056461;28;20202;-74
2021/09/05 01:12:59;;;;;;;1.20;1.10;;;12.30;95.80;;;;;;5059583;28;20192;-75
2021/09/05 01:15:27;;;;;;;1.40;1.30;;;12.30;95.90;;;;;;5068561;28;20615;-74
2021/09/05 01:17:55;;;;;;;1.43;1.33;;;12.30;96.00;;;;;;5067337;28;20270;-74
2021/09/05 01:20:39;;;;;;;1.30;1.20;;;12.30;96.10;;;;;;5055538;28;20251;-74
2021/09/05 01:23:25;;;;;;;1.53;1.40;;;12.30;96.20;;;;;;5058720;28;20209;-74
2021/09/05 01:26:15;;;;;;;1.40;1.07;;;12.20;96.20;;;;;;5066590;28;20392;-74
2021/09/05 01:29:04;;;;;;;1.33;1.23;;;12.20;96.30;;;;;;5058424;28;20364;-74
2021/09/05 01:31:55;;;;;;;1.17;1.10;;;12.20;96.30;;;;;;5056260;28;20241;-75
2021/09/05 01:34:43;;;;;;;1.67;1.10;;;12.20;96.40;;;;;;5046315;28;20216;-74
2021/09/05 01:37:28;;;;;;;1.13;1.03;;;12.20;96.50;;;;;;5038579;28;20248;-75
2021/09/05 01:40:14;;;;;;;1.33;1.23;;;12.20;96.50;;;;;;5044201;28;20283;-74
2021/09/05 01:42:58;;;;;;;1.27;1.10;;;12.60;96.80;;;;;;5045589;28;20229;-74
2021/09/05 01:45:45;;;;;;;1.30;1.20;;;11.90;96.60;;;;;;5046585;28;20740;-74
2021/09/05 01:48:30;;;;;;;1.20;1.10;;;12.10;96.80;;;;;;5042253;28;20204;-74
2021/09/05 01:51:30;;;;;;;1.23;1.13;;;12.10;96.80;;;;;;4986591;28;20221;-74
2021/09/05 01:54:15;;;;;;;1.20;1.10;;;12.10;96.90;;;;;;4986062;28;20219;-74
2021/09/05 01:57:11;;;;;;;1.60;1.13;;;12.10;97.00;;;;;;4966254;28;20224;-74
2021/09/05 02:00:11;;;;;;;1.33;1.23;;;12.10;97.00;;;;;;4966635;28;20216;-73
2021/09/05 02:02:56;;;;;;;1.20;1.10;;;12.10;97.10;;;;;;4966776;28;20209;-74
2021/09/05 02:05:42;;;;;;;1.10;1.00;;;12.10;97.20;;;;;;4967107;28;20342;-74
2021/09/05 02:08:18;;;;;;;0.90;0.90;;;12.40;97.40;;;;;;4966673;28;20202;-74
2021/09/05 02:11:16;;;;;;;0.83;0.83;;;12.00;97.30;;;;;;4964451;28;20212;-74
2021/09/05 02:14:03;;;;;;;1.20;1.10;;;12.00;97.40;;;;;;4966583;28;20239;-74
2021/09/05 02:16:44;;;;;;;0.90;0.90;;;12.00;97.50;;;;;;4966404;28;20222;-74
2021/09/05 02:19:37;;;;;;;0.80;0.80;;;12.00;97.50;;;;;;4966969;28;20331;-74
2021/09/05 02:22:23;;;;;;;1.00;1.00;;;12.00;97.60;;;;;;4963346;28;20210;-74
2021/09/05 02:25:13;;;;;;;1.30;1.20;;;11.70;97.50;;;;;;5004686;28;20212;-74
2021/09/05 02:28:00;;;;;;;1.00;0.90;;;12.00;97.70;;;;;;4999424;28;20270;-74
2021/09/05 02:30:50;;;;;;;1.03;0.93;;;12.00;97.80;;;;;;5005977;28;20217;-74
2021/09/05 02:33:34;;;;;;;0.90;0.90;;;12.00;97.80;;;;;;4995728;28;20245;-74
2021/09/05 02:36:25;;;;;;;0.90;0.90;;;12.00;97.90;;;;;;5042678;28;20220;-74
2021/09/05 02:39:14;;;;;;;0.90;0.90;;;12.10;97.90;;;;;;5037522;28;20222;-74
2021/09/05 02:42:08;;;;;;;0.90;0.90;;;12.10;97.90;;;;;;4985834;28;20244;-74
2021/09/05 02:44:54;;;;;;;1.00;1.00;;;12.20;98.30;;;;;;4986089;28;20220;-74
2021/09/05 02:47:46;;;;;;;1.20;1.10;;;12.20;97.90;;;;;;4985410;28;20262;-74
2021/09/05 02:50:44;;;;;;;1.07;1.00;;;12.50;98.00;;;;;;4985868;28;20216;-74
2021/09/05 02:56:14;;;;;;;1.07;0.97;;;12.40;97.90;;;;;;5080579;28;20550;-71
2021/09/05 02:59:00;;;;;;;0.80;0.80;;;12.50;98.00;;;;;;5077948;28;20822;-71
2021/09/05 03:02:06;;;;;;;1.50;1.03;;;12.50;97.90;;;;;;5068228;28;20207;-71
2021/09/05 03:05:06;;;;;;;1.10;1.00;;;12.60;97.90;;;;;;5071891;28;20239;-71
2021/09/05 03:08:02;;;;;;;0.80;0.80;;;12.60;97.90;;;;;;5058665;28;20207;-71
2021/09/05 03:11:02;;;;;;;0.97;0.87;;;12.70;97.90;;;;;;5047187;28;20206;-71
2021/09/05 03:14:05;;;;;;;1.50;0.90;;;12.70;97.90;;;;;;5051560;28;20213;-71
2021/09/05 03:17:07;;;;;;;1.40;0.70;;;12.80;97.90;;;;;;5040045;28;20200;-71
2021/09/05 03:19:53;;;;;;;0.80;0.80;;;12.80;97.90;;;;;;5050162;28;20247;-71
2021/09/05 03:22:43;;;;;;;0.60;0.60;;;12.80;97.90;;;;;;5038725;28;20681;-71
2021/09/05 03:25:36;;;;;;;0.70;0.70;;;12.70;97.90;;;;;;5047903;28;20214;-72
2021/09/05 03:28:21;;;;;;;0.60;0.60;;;12.70;97.90;;;;;;5061657;28;20219;-70
2021/09/05 03:31:25;;;;;;;0.77;0.77;;;12.70;97.90;;;;;;4987575;28;20671;-70
2021/09/05 03:34:12;;;;;;;0.57;0.57;;;12.70;97.90;;;;;;4944552;28;20205;-70
2021/09/05 03:37:05;;;;;;;0.63;0.63;;;12.70;98.00;;;;;;4930896;29;20213;-70
2021/09/05 03:39:59;;;;;;;0.60;0.60;;;12.70;98.00;;;;;;4943647;28;20302;-72
2021/09/05 03:42:49;;;;;;;0.80;0.80;;;12.70;98.00;;;;;;4905621;29;20215;-72
2021/09/05 03:45:34;;;;;;;0.80;0.80;;;12.70;98.00;;;;;;4906761;29;20212;-73
2021/09/05 03:48:26;;;;;;;0.60;0.60;;;12.70;98.00;;;;;;4886633;29;20251;-72
2021/09/05 03:51:03;;;;;;;0.93;0.90;;;12.60;98.00;;;;;;4871262;29;20680;-72
2021/09/05 03:53:32;;;;;;;1.63;0.60;;;12.60;98.00;;;;;;4877872;29;20234;-72
2021/09/05 03:56:00;;;;;;;0.77;0.77;;;12.60;98.00;;;;;;4873852;29;20234;-70
2021/09/05 03:58:32;;;;;;;0.77;0.77;;;12.60;98.10;;;;;;4864295;29;20211;-72
2021/09/05 04:00:59;;;;;;;0.70;0.70;;;12.60;98.10;;;;;;4870952;29;20623;-72
2021/09/05 04:06:09;;;;;;;1.50;1.00;;;12.60;98.20;;;;;;5072542;27;20563;-72
2021/09/05 04:08:41;;;;;;;1.00;0.90;;;12.60;98.30;;;;;;5076694;28;20197;-72
2021/09/05 04:11:08;;;;;;;0.70;0.70;;;12.60;98.30;;;;;;5096627;28;20209;-72
2021/09/05 04:13:35;;;;;;;0.50;0.50;;;12.60;98.30;;;;;;5074504;28;20739;-72
2021/09/05 04:16:03;;;;;;;0.80;0.80;;;12.60;98.30;;;;;;5069259;28;20217;-72
2021/09/05 04:18:30;;;;;;;0.70;0.70;;;12.70;98.40;;;;;;5072432;28;20200;-72
2021/09/05 04:20:56;;;;;;;0.70;0.70;;;12.70;98.40;;;;;;5064294;28;20197;-71
2021/09/05 04:23:25;;;;;;;0.50;0.50;;;12.70;98.40;;;;;;5052725;28;20677;-72
2021/09/05 04:25:52;;;;;;;0.60;0.60;;;12.70;98.40;;;;;;5072637;28;20555;-72
2021/09/05 04:28:19;;;;;;;0.90;0.90;;;12.80;98.40;;;;;;5081813;28;20244;-72
2021/09/05 04:30:46;;;;;;;0.80;0.80;;;12.80;98.80;;;;;;5084298;28;20200;-71
2021/09/05 04:33:13;;;;;;;1.03;0.83;;;12.90;98.50;;;;;;5080796;28;20438;-72
2021/09/05 04:35:40;;;;;;;0.90;0.90;;;13.00;98.50;;;;;;5084405;28;20810;-71
2021/09/05 04:38:07;;;;;;;0.90;0.90;;;13.00;98.50;;;;;;5077512;28;20209;-72
2021/09/05 04:40:35;;;;;;;0.70;0.70;;;13.10;98.50;;;;;;5082140;28;20208;-71
2021/09/05 04:43:02;;;;;;;0.83;0.83;;;13.20;98.40;;;;;;5078484;28;20330;-71
2021/09/05 04:45:29;;;;;;;0.80;0.80;;;13.20;98.40;;;;;;5079542;28;20240;-70
2021/09/05 04:47:56;;;;;;;0.60;0.60;;;13.20;98.40;;;;;;5075919;28;20198;-71
2021/09/05 04:50:23;;;;;;;0.73;0.73;;;13.20;98.40;;;;;;5067284;28;20754;-71
2021/09/05 04:52:50;;;;;;;0.63;0.63;;;13.20;98.40;;;;;;5072828;28;20610;-71
2021/09/05 04:55:17;;;;;;;0.70;0.70;;;13.30;98.50;;;;;;5074865;28;20313;-71
2021/09/05 04:57:45;;;;;;;1.03;0.93;;;13.30;98.40;;;;;;5073614;28;20899;-71
2021/09/05 05:00:13;;;;;;;0.60;0.60;;;13.30;98.50;;;;;;5074989;28;20691;-71
2021/09/05 05:02:40;;;;;;;0.60;0.60;;;13.40;98.50;;;;;;5072115;28;20572;-73
2021/09/05 05:05:08;;;;;;;1.00;0.87;;;13.40;98.40;;;;;;5057831;28;20256;-73
2021/09/05 05:07:35;;;;;;;4.03;1.80;;;13.50;98.40;;;;;;5072483;28;20553;-72
2021/09/05 05:10:02;;;;;;;2.93;1.90;;;13.50;98.40;;;;;;5069512;28;20207;-71
2021/09/05 05:12:29;;;;;;;2.57;1.90;;;13.40;98.40;;;;;;5054538;28;20206;-76
2021/09/05 05:14:57;;;;;;;3.10;2.10;;;13.40;98.50;;;;;;5074975;28;20201;-73
2021/09/05 05:17:24;;;;;;;3.43;2.53;;;13.40;98.50;;;;;;5056161;28;20197;-71
2021/09/05 05:19:51;;;;;;;2.57;2.10;;;13.50;98.50;;;;;;5050411;28;20201;-71
2021/09/05 05:22:18;;;;;;;1.90;1.80;;;13.60;98.40;;;;;;5039635;28;20673;-72
2021/09/05 05:24:45;;;;;;;2.50;2.17;;;13.80;98.40;;;;;;5048104;28;20336;-70
2021/09/05 05:27:12;;;;;;;2.90;1.87;;;13.90;98.30;;;;;;5067903;28;20197;-71
2021/09/05 05:29:39;;;;;;;1.83;1.60;;;14.10;98.10;;;;;;5068167;28;20278;-71
2021/09/05 05:32:08;;;;;;;1.70;1.60;;;14.20;97.90;;;;;;5067241;28;20232;-71
2021/09/05 05:34:35;;;;;;;3.93;2.00;;;14.30;97.80;;;;;;5065899;28;20194;-71
2021/09/05 05:37:03;;;;;;;2.07;1.60;;;14.40;97.80;;;;;;5044655;28;20547;-72
2021/09/05 05:39:31;;;;;;;2.47;1.70;;;14.50;97.80;;;;;;5064649;28;20290;-71
2021/09/05 05:41:58;;;;;;;2.13;1.63;;;14.60;97.70;;;;;;5044294;28;20203;-71
2021/09/05 05:44:25;;;;;;;1.43;1.30;;;14.70;97.60;;;;;;5061922;28;20550;-71
2021/09/05 05:46:52;;;;;;;1.70;1.60;;;14.80;97.50;;;;;;5062903;28;20198;-71
2021/09/05 05:49:20;;;;;;;1.67;1.57;;;14.80;97.30;;;;;;5062011;28;20215;-71
2021/09/05 05:51:47;;;;;;;1.57;1.40;;;14.90;97.30;;;;;;5056224;28;20286;-71
2021/09/05 05:54:15;;;;;;;1.30;1.20;;;15.00;97.30;;;;;;5049077;28;20575;-71
2021/09/05 05:56:43;;;;;;;1.80;1.70;;;15.10;97.30;;;;;;5056808;28;20557;-71
2021/09/05 05:59:10;;;;;;;1.77;1.63;;;15.10;97.20;;;;;;5059537;28;20602;-71
2021/09/05 06:01:37;;;;;;;1.47;1.37;;;15.20;97.10;;;;;;5056030;28;20199;-71
2021/09/05 06:04:05;;;;;;;2.00;1.90;;;15.30;97.20;;;;;;5048098;28;20243;-72
2021/09/05 06:06:33;;;;;;;2.00;1.80;;;15.60;97.20;;;;;;5059784;28;20586;-71
2021/09/05 06:09:00;;;;;;;2.27;2.07;;;15.80;97.10;;;;;;5058135;28;20200;-71
2021/09/05 06:11:28;;;;;;;2.47;2.23;;;16.10;97.10;;;;;;5052608;28;20215;-71
2021/09/05 06:13:55;;;;;;;1.97;1.80;;;16.60;96.90;;;;;;5052410;28;20202;-71
2021/09/05 06:16:22;;;;;;;1.80;1.70;;;17.10;96.30;;;;;;5044959;28;20557;-72
2021/09/05 06:18:49;;;;;;;2.10;1.93;;;17.50;95.80;;;;;;5046240;28;20209;-71
2021/09/05 06:21:16;;;;;;;1.80;1.70;;;17.80;95.30;;;;;;5046418;28;20608;-71
2021/09/05 06:23:44;;;;;;;1.93;1.73;;;18.00;94.80;;;;;;5039365;28;20546;-71
2021/09/05 06:26:11;;;;;;;2.63;1.83;;;18.10;94.70;;;;;;5060673;28;20225;-72
2021/09/05 06:28:38;;;;;;;4.83;3.83;;;18.20;94.60;;;;;;5067392;28;20678;-72
2021/09/05 06:31:05;;;;;;;6.97;4.80;;;18.50;94.40;;;;;;5066345;28;20689;-72
2021/09/05 06:33:32;;;;;;;5.77;4.10;;;19.30;94.00;;;;;;5065339;28;20209;-72
2021/09/05 06:35:59;;;;;;;6.53;4.53;;;20.10;92.90;;;;;;5061752;28;20201;-72
2021/09/05 06:38:26;;;;;;;6.45;4.43;;;21.10;91.70;;;;;;5063273;28;20208;-71
2021/09/05 06:40:54;;;;;;;4.85;3.70;;;22.20;90.00;;;;;;5062641;28;20681;-71
2021/09/05 06:43:21;;;;;;;3.47;3.17;;;23.50;85.40;;;;;;5059704;28;20316;-71
2021/09/05 06:45:48;;;;;;;4.10;3.22;;;25.00;80.70;;;;;;5059910;28;20231;-72
2021/09/05 06:48:15;;;;;;;4.43;3.58;;;26.70;75.40;;;;;;5056794;28;20197;-72
2021/09/05 06:50:42;;;;;;;3.10;2.80;;;28.60;69.10;;;;;;5063220;28;20623;-72
2021/09/05 06:53:09;;;;;;;3.03;2.40;;;30.60;61.90;;;;;;5056552;28;20204;-72
2021/09/05 06:55:36;;;;;;;2.47;2.20;;;32.50;56.20;;;;;;5051194;28;20654;-72
2021/09/05 06:58:04;;;;;;;1.67;1.58;;;34.30;51.60;;;;;;5050047;28;20198;-72
2021/09/05 07:00:31;;;;;;;1.70;1.60;;;35.80;47.50;;;;;;5056652;28;20216;-72
2021/09/05 07:02:58;;;;;;;1.40;1.40;;;37.20;45.00;;;;;;5058649;28;20221;-72
2021/09/05 07:05:25;;;;;;;1.80;1.70;;;38.50;41.40;;;;;;5059071;28;20726;-72
2021/09/05 07:07:52;;;;;;;2.58;2.45;;;39.50;39.10;;;;;;5055083;28;20201;-72
2021/09/05 07:10:19;;;;;;;2.67;2.58;;;40.50;37.30;;;;;;5053411;28;20665;-72
2021/09/05 07:12:46;;;;;;;2.30;2.20;;;41.40;35.20;;;;;;5056093;28;20214;-71
2021/09/05 07:15:14;;;;;;;2.00;1.90;;;42.20;33.60;;;;;;5050953;28;20200;-72
2021/09/05 07:17:42;;;;;;;3.40;3.20;;;43.00;32.40;;;;;;5053249;28;20219;-72
2021/09/05 07:20:10;;;;;;;3.85;3.65;;;43.80;30.30;;;;;;5048977;28;20666;-72
2021/09/05 07:22:37;;;;;;;3.80;3.55;;;43.90;29.60;;;;;;5037202;28;20677;-72
2021/09/05 07:25:04;;;;;;;3.85;3.60;;;43.70;29.30;;;;;;5050427;28;20299;-72
2021/09/05 07:27:31;;;;;;;4.00;3.70;;;43.70;29.00;;;;;;5066758;28;20278;-72
2021/09/05 07:29:58;;;;;;;5.43;4.93;;;44.00;28.30;;;;;;5066515;28;20675;-72
2021/09/05 07:32:26;;;;;;;4.25;3.95;;;43.90;28.00;;;;;;5065875;28;20193;-72
2021/09/05 07:34:53;;;;;;;3.58;3.28;;;42.30;28.10;;;;;;5061635;28;20748;-72
2021/09/05 07:37:20;;;;;;;2.40;2.25;;;40.30;28.80;;;;;;5067257;28;20200;-71
2021/09/05 07:39:47;;;;;;;2.90;2.70;;;38.40;29.20;;;;;;5061516;28;20673;-71
2021/09/05 07:42:14;;;;;;;2.47;2.28;;;36.60;30.00;;;;;;5065641;28;20204;-71
2021/09/05 07:44:41;;;;;;;2.17;1.98;;;35.00;30.60;;;;;;5056942;28;20218;-72
2021/09/05 07:47:08;;;;;;;1.90;1.80;;;33.60;31.60;;;;;;5059026;28;20254;-72
2021/09/05 07:49:36;;;;;;;1.85;1.75;;;32.50;32.40;;;;;;5050826;28;20206;-71
2021/09/05 07:52:03;;;;;;;1.63;1.52;;;31.60;33.60;;;;;;5048307;28;20201;-72
2021/09/05 07:54:30;;;;;;;1.80;1.70;;;31.10;34.50;;;;;;5055214;28;20205;-71
2021/09/05 07:56:57;;;;;;;1.30;1.20;;;31.70;34.50;;;;;;5055691;28;20200;-72
2021/09/05 07:59:24;;;;;;;1.40;1.38;;;33.80;33.40;;;;;;5055513;28;20195;-71
2021/09/05 08:01:51;;;;;;;1.63;1.52;;;35.50;31.60;;;;;;5063919;28;20276;-72
2021/09/05 08:04:18;;;;;;;1.35;1.35;;;35.80;30.90;;;;;;5057587;28;20236;-72
2021/09/05 08:06:47;;;;;;;1.73;1.60;;;34.80;31.00;;;;;;5060289;28;20260;-71
2021/09/05 08:09:13;;;;;;;1.60;1.50;;;33.50;31.50;;;;;;5046280;28;20277;-72
2021/09/05 08:11:40;;;;;;;1.10;1.10;;;32.20;32.30;;;;;;5048843;28;20238;-71
2021/09/05 08:14:07;;;;;;;2.15;1.48;;;31.10;33.10;;;;;;5043367;28;20197;-71
2021/09/05 08:16:37;;;;;;;1.73;1.63;;;30.20;33.50;;;;;;5052603;28;20288;-72
2021/09/05 08:19:04;;;;;;;2.13;1.50;;;30.30;33.80;;;;;;5042762;28;20267;-71
2021/09/05 08:21:31;;;;;;;1.60;1.50;;;30.00;34.00;;;;;;5046312;28;20209;-72
2021/09/05 08:23:59;;;;;;;1.73;1.40;;;29.40;34.70;;;;;;5041337;28;20198;-72
2021/09/05 08:26:26;;;;;;;2.53;1.80;;;28.70;35.60;;;;;;5047110;28;20214;-71
2021/09/05 08:28:53;;;;;;;1.83;1.38;;;28.00;36.50;;;;;;5049178;28;20201;-72
2021/09/05 08:31:20;;;;;;;1.85;1.60;;;27.30;37.30;;;;;;5053291;28;20220;-71
2021/09/05 08:33:47;;;;;;;1.70;1.60;;;26.80;38.30;;;;;;5061016;28;20194;-71
2021/09/05 08:36:14;;;;;;;2.15;1.95;;;26.50;39.20;;;;;;5078616;28;20292;-71
2021/09/05 08:38:44;;;;;;;1.98;1.83;;;27.90;39.20;;;;;;5050950;28;20209;-73
2021/09/05 08:41:13;;;;;;;1.92;1.83;;;31.10;37.40;;;;;;5056526;28;20197;-72
2021/09/05 08:43:40;;;;;;;2.00;1.90;;;33.20;34.50;;;;;;5047302;28;20335;-72
2021/09/05 08:46:07;;;;;;;1.80;1.70;;;35.40;32.90;;;;;;5049590;28;20207;-73
2021/09/05 08:48:35;;;;;;;2.10;2.00;;;37.80;31.10;;;;;;5056454;28;20247;-71
2021/09/05 08:51:02;;;;;;;3.63;2.40;;;39.90;29.30;;;;;;5044497;28;20208;-73
2021/09/05 08:53:29;;;;;;;1.77;1.67;;;41.40;27.80;;;;;;5062217;28;20357;-72
2021/09/05 08:55:56;;;;;;;2.38;2.28;;;42.70;27.40;;;;;;5053948;28;20740;-72
2021/09/05 08:58:24;;;;;;;2.05;1.92;;;43.80;26.50;;;;;;5057746;28;20201;-72
2021/09/05 09:00:51;;;;;;;2.13;2.03;;;44.80;25.80;;;;;;5049827;28;20305;-72
2021/09/05 09:03:23;;;;;;;2.40;2.30;;;45.90;25.40;;;;;;5052727;28;20196;-73
2021/09/05 09:05:53;;;;;;;2.90;2.70;;;46.80;24.90;;;;;;5047296;28;20309;-73
2021/09/05 09:08:21;;;;;;;3.08;2.78;;;47.70;23.90;;;;;;5062108;28;20679;-74
2021/09/05 09:10:50;;;;;;;1.98;1.88;;;48.70;23.20;;;;;;5048870;28;20679;-75
2021/09/05 09:13:30;;;;;;;8.23;7.43;;;49.20;22.20;;;;;;5061558;28;20200;-73
2021/09/05 09:15:58;;;;;;;4.50;4.28;;;50.40;21.90;;;;;;5045521;28;20217;-74
2021/09/05 09:18:28;;;;;;;3.63;3.33;;;51.30;20.90;;;;;;5051536;28;20284;-72
2021/09/05 09:20:56;;;;;;;3.17;3.08;;;51.70;20.00;;;;;;5047607;28;20189;-72
2021/09/05 09:23:24;;;;;;;2.30;2.20;;;52.00;19.90;;;;;;5046388;28;20584;-73
2021/09/05 09:26:00;;;;;;;2.60;2.50;;;52.20;19.80;;;;;;5059274;28;20196;-73
2021/09/05 09:28:35;;;;;;;2.50;2.40;;;52.50;19.60;;;;;;5067016;28;20216;-72
2021/09/05 09:31:13;;;;;;;2.53;2.42;;;53.10;19.40;;;;;;5060504;28;20196;-72
2021/09/05 09:33:41;;;;;;;2.72;2.53;;;53.10;18.70;;;;;;5049727;28;20241;-73
2021/09/05 09:36:11;;;;;;;2.78;2.67;;;53.00;18.80;;;;;;5060308;28;20239;-73
2021/09/05 09:38:38;;;;;;;2.35;2.25;;;53.20;18.90;;;;;;5065737;28;20197;-74
2021/09/05 09:41:07;;;;;;;2.30;2.25;;;53.40;18.00;;;;;;5058454;28;20192;-73
2021/09/05 09:43:48;;;;;;;2.90;2.72;;;53.70;17.70;;;;;;5044191;28;20656;-73
2021/09/05 09:46:17;;;;;;;2.47;2.38;;;53.60;17.10;;;;;;5064445;28;20669;-73
2021/09/05 09:48:45;;;;;;;2.42;2.33;;;51.80;17.40;;;;;;5059662;28;20244;-72
2021/09/05 09:51:13;;;;;;;2.40;2.30;;;49.70;18.00;;;;;;5062288;28;20297;-72
2021/09/05 09:53:41;;;;;;;2.42;2.33;;;49.40;18.30;;;;;;5066009;28;20657;-73
2021/09/05 09:56:09;;;;;;;2.30;2.20;;;49.80;18.20;;;;;;5050569;28;20298;-73
2021/09/05 09:58:37;;;;;;;2.20;2.20;;;50.60;18.00;;;;;;5048493;28;20741;-73
2021/09/05 10:01:05;;;;;;;2.53;2.42;;;51.30;18.60;;;;;;5062026;28;20195;-73
2021/09/05 10:03:33;;;;;;;2.70;2.60;;;52.10;17.80;;;;;;5051408;28;20587;-73
2021/09/05 10:06:02;;;;;;;2.53;2.42;;;52.50;17.40;;;;;;5051344;28;20317;-73
2021/09/05 10:08:31;;;;;;;2.92;2.72;;;52.70;17.20;;;;;;5050735;28;20205;-73
2021/09/05 10:10:59;;;;;;;2.45;2.35;;;52.40;16.60;;;;;;5060063;28;20300;-73
2021/09/05 10:13:31;;;;;;;2.40;2.30;;;50.20;17.00;;;;;;5045638;28;20314;-73
2021/09/05 10:16:00;;;;;;;2.03;2.00;;;47.60;17.80;;;;;;5044777;28;20227;-72
2021/09/05 10:18:28;;;;;;;2.22;2.13;;;45.40;18.60;;;;;;5041307;28;20441;-72
2021/09/05 10:20:57;;;;;;;2.00;1.90;;;43.50;19.30;;;;;;5054981;28;20193;-72
2021/09/05 10:23:32;;;;;;;1.95;1.90;;;42.40;19.90;;;;;;5035537;28;20204;-73
2021/09/05 10:26:06;;;;;;;2.20;2.10;;;43.30;19.80;;;;;;5057774;28;20426;-73
2021/09/05 10:28:37;;;;;;;2.05;1.85;;;44.80;19.10;;;;;;5048351;28;20210;-75
2021/09/05 10:31:07;;;;;;;1.90;1.90;;;46.40;18.80;;;;;;5068496;28;20219;-74
2021/09/05 10:33:36;;;;;;;2.10;2.00;;;47.60;18.10;;;;;;5064460;28;20577;-74
2021/09/05 10:36:11;;;;;;;2.10;2.00;;;48.10;17.60;;;;;;5065178;28;20204;-74
2021/09/05 10:38:40;;;;;;;2.15;2.05;;;47.50;17.80;;;;;;5054446;28;20250;-74
2021/09/05 10:41:14;;;;;;;2.35;2.17;;;47.80;17.80;;;;;;5063762;28;20193;-74
2021/09/05 10:44:15;;;;;;;2.20;2.10;;;46.90;17.80;;;;;;5066206;28;20232;-73
2021/09/05 10:46:48;;;;;;;2.38;2.30;;;46.80;18.30;;;;;;5053810;28;20280;-73
2021/09/05 10:49:16;;;;;;;3.22;2.03;;;47.40;18.10;;;;;;5062452;28;20192;-74
2021/09/05 10:51:50;;;;;;;2.28;2.17;;;46.40;18.10;;;;;;5037918;28;20207;-74
2021/09/05 10:54:26;;;;;;;2.00;1.90;;;45.60;18.10;;;;;;5053086;28;20283;-74
2021/09/05 10:56:54;;;;;;;1.60;1.60;;;44.00;18.50;;;;;;5053946;28;20208;-73
2021/09/05 10:59:22;;;;;;;2.20;2.10;;;42.30;19.20;;;;;;5049801;28;20198;-73
2021/09/05 11:02:02;;;;;;;1.63;1.63;;;40.70;19.60;;;;;;5063826;28;20200;-73
2021/09/05 11:04:44;;;;;;;1.80;1.70;;;39.30;20.20;;;;;;5049614;28;20229;-73
2021/09/05 11:07:28;;;;;;;1.90;1.80;;;38.20;20.80;;;;;;5056305;28;20311;-75
2021/09/05 11:09:55;;;;;;;1.67;1.60;;;37.80;21.10;;;;;;5060737;28;20216;-73
2021/09/05 11:12:43;;;;;;;1.73;1.63;;;38.20;21.00;;;;;;5049529;28;20201;-73
2021/09/05 11:15:20;;;;;;;1.92;1.83;;;38.80;20.70;;;;;;5041489;28;20203;-73
2021/09/05 11:17:58;;;;;;;1.60;1.50;;;39.10;20.90;;;;;;5069615;28;20229;-73
2021/09/05 11:20:27;;;;;;;1.50;1.50;;;39.10;20.90;;;;;;5054851;28;20248;-73
2021/09/05 11:22:56;;;;;;;1.80;1.70;;;38.00;21.20;;;;;;5039935;28;20186;-73
2021/09/05 11:25:26;;;;;;;1.80;1.70;;;36.80;21.80;;;;;;5038758;28;20204;-72
2021/09/05 11:28:02;;;;;;;1.80;1.70;;;35.90;22.60;;;;;;5066541;28;20196;-73
2021/09/05 11:30:31;;;;;;;1.77;1.33;;;36.10;22.90;;;;;;5056598;28;20227;-73
2021/09/05 11:33:06;;;;;;;1.45;1.45;;;37.30;22.80;;;;;;5065034;28;20549;-73
2021/09/05 11:35:42;;;;;;;1.20;1.20;;;38.50;22.50;;;;;;5065489;28;20232;-74
2021/09/05 11:38:12;;;;;;;1.50;1.40;;;39.30;22.00;;;;;;5064716;28;20262;-73
2021/09/05 11:40:51;;;;;;;1.60;1.50;;;39.90;21.60;;;;;;5064853;28;20232;-73
2021/09/05 11:43:33;;;;;;;1.65;1.55;;;40.40;21.20;;;;;;5060581;28;20276;-73
2021/09/05 11:46:09;;;;;;;1.90;1.80;;;40.90;21.30;;;;;;5055866;28;20212;-74
2021/09/05 11:48:53;;;;;;;1.70;1.60;;;41.00;21.40;;;;;;5068710;28;20213;-74
2021/09/05 11:51:21;;;;;;;1.63;1.52;;;40.80;22.00;;;;;;5060035;28;20244;-74
2021/09/05 11:53:56;;;;;;;1.60;1.50;;;40.60;21.50;;;;;;5063266;28;20258;-73
2021/09/05 11:56:29;;;;;;;1.63;1.52;;;40.20;21.70;;;;;;5052121;28;20192;-73
2021/09/05 11:59:05;;;;;;;1.35;1.30;;;39.50;22.00;;;;;;5046427;28;20247;-73
2021/09/05 12:01:33;;;;;;;1.55;1.45;;;38.80;22.20;;;;;;5059015;28;20196;-73
2021/09/05 12:04:02;;;;;;;1.50;1.40;;;37.20;22.90;;;;;;5083167;28;20304;-73
2021/09/05 12:06:29;;;;;;;1.63;1.52;;;35.60;23.90;;;;;;5059675;28;20192;-73
2021/09/05 12:08:57;;;;;;;1.27;1.27;;;34.20;25.10;;;;;;5053167;28;20191;-72
2021/09/05 12:11:24;;;;;;;1.27;1.25;;;32.90;25.80;;;;;;5048764;28;20220;-72
2021/09/05 12:13:54;;;;;;;1.23;1.13;;;31.90;26.60;;;;;;5056275;28;20697;-72
2021/09/05 12:16:26;;;;;;;0.98;0.98;;;31.00;27.20;;;;;;5054253;28;20309;-72
2021/09/05 12:19:06;;;;;;;1.10;1.02;;;30.20;27.90;;;;;;5052430;28;20577;-72
2021/09/05 12:21:35;;;;;;;0.88;0.88;;;29.50;28.50;;;;;;5048594;28;20252;-71
2021/09/05 12:24:04;;;;;;;1.38;0.95;;;28.80;29.20;;;;;;5032440;28;20286;-73
2021/09/05 12:26:37;;;;;;;0.82;0.82;;;28.10;29.70;;;;;;5061665;28;20546;-73
2021/09/05 12:29:06;;;;;;;0.70;0.70;;;27.40;30.10;;;;;;5070667;28;20584;-73
2021/09/05 12:31:41;;;;;;;1.05;1.05;;;26.90;30.80;;;;;;5068666;28;20205;-73
2021/09/05 12:34:10;;;;;;;0.82;0.82;;;26.30;31.40;;;;;;5067806;28;20212;-72
2021/09/05 12:36:38;;;;;;;0.85;0.85;;;25.90;31.90;;;;;;5067439;28;20193;-72
2021/09/05 12:39:06;;;;;;;3.40;1.10;;;25.60;32.60;;;;;;5069330;28;20197;-73
2021/09/05 12:41:34;;;;;;;1.17;1.10;;;25.30;33.10;;;;;;5059820;28;20209;-72
2021/09/05 12:44:07;;;;;;;0.75;0.75;;;25.00;34.10;;;;;;5060755;28;20242;-72
2021/09/05 12:46:38;;;;;;;0.80;0.80;;;24.70;34.70;;;;;;5064397;28;20242;-73
2021/09/05 12:49:15;;;;;;;0.70;0.70;;;24.40;34.90;;;;;;5055478;28;20202;-72
2021/09/05 12:51:53;;;;;;;0.98;0.98;;;24.10;35.20;;;;;;5066983;28;20502;-72
2021/09/05 12:54:22;;;;;;;0.70;0.70;;;23.80;35.50;;;;;;5057852;28;20198;-72
2021/09/05 12:56:50;;;;;;;0.80;0.80;;;23.60;36.10;;;;;;5052304;28;20236;-72
2021/09/05 12:59:18;;;;;;;0.60;0.60;;;23.30;36.70;;;;;;5061829;28;20204;-72
2021/09/05 13:01:49;;;;;;;1.95;0.60;;;23.00;36.80;;;;;;5056599;28;20266;-72
2021/09/05 13:04:19;;;;;;;0.88;0.70;;;22.80;37.40;;;;;;5053167;28;20280;-72
2021/09/05 13:06:47;;;;;;;0.63;0.60;;;22.60;37.50;;;;;;5059562;28;20198;-73
2021/09/05 13:09:15;;;;;;;0.85;0.85;;;22.50;37.60;;;;;;5056863;28;20225;-72
2021/09/05 13:11:43;;;;;;;1.02;0.82;;;22.30;37.50;;;;;;5062631;28;20207;-72
2021/09/05 13:14:12;;;;;;;0.70;0.70;;;22.20;37.70;;;;;;5049335;28;20201;-71
2021/09/05 13:16:39;;;;;;;0.70;0.70;;;22.00;38.30;;;;;;5059834;28;20573;-71
2021/09/05 13:19:06;;;;;;;1.30;0.70;;;21.90;39.20;;;;;;5040753;28;20206;-72
2021/09/05 13:21:35;;;;;;;0.70;0.70;;;21.80;38.90;;;;;;5043046;28;20229;-72